FYGA4: White River At Fayetteville, AR

                                SHEF ID:       FYGA4     White River near Fayetteville, A
STATION TYPE: Stream Gauge

PRECIP STAGE RIV-FLOW WTR-TEMP DIS-OXY PH CONDUCT BAT-LOAD
in ft cfs F mg/l su umho/cm volt
Ccp-Rev Ccp-Rev Ccp-Rev Ccp-Rev Ccp-Rev Ccp-Rev Ccp-Rev Ccp-Rev
(America/Chicago)
11/20 00:00 0.00 1.91 37 60.89 7.58 7.52 197 12.65
11/20 01:00 0.00 1.91 37 60.75 7.48 7.50 199 12.65
11/20 02:00 0.00 1.91 37 60.57 7.42 7.48 191 12.65
11/20 03:00 0.00 1.92 38 60.42 7.37 7.47 198 12.65
11/20 04:00 0.00 1.92 38 60.26 7.30 7.46 194 12.57
11/20 05:00 0.00 1.92 38 60.21 7.26 7.45 196 12.57
11/20 06:00 0.00 1.91 37 60.15 7.23 7.44 197 12.49
11/20 07:00 0.01 1.92 38 60.17 7.21 7.43 196 12.49
11/20 08:00 0.00 1.92 38 60.22 7.25 7.43 195 12.41
11/20 09:00 1.68 2.01 49 60.35 8.21 7.64 160 12.41
11/20 10:00 0.92 2.64 175 60.48 8.31 7.57 163 12.49
11/20 11:00 0.01 3.04 307 60.69 8.74 7.59 123 12.89
11/20 12:00 0.00 4.71 1388 60.39 8.01 7.56 245 13.05
11/20 13:00 0.00 4.68 1360 60.75 8.09 7.62 198 12.97
11/20 14:00 0.03 4.19 951 61.09 8.00 7.62 156 13.05
11/20 15:00 0.06 3.79 679 61.16 8.07 7.64 149 12.97
11/20 16:00 0.07 3.56 546 61.14 8.14 7.65 146 12.97
11/20 17:00 0.07 3.44 483 61.11 8.12 7.64 143 12.81
11/20 18:00 0.01 3.32 425 61.05 8.06 7.61 140 12.73
11/20 19:00 0.00 3.25 394 61.00 8.01 7.58 140 12.65
11/20 20:00 0.00 3.17 359 60.96 7.97 7.54 147 12.65
11/20 21:00 0.00 3.13 342 60.93 7.95 7.53 143 12.57
11/20 22:00 0.07 3.07 318 60.87 7.88 7.50 151 12.49
11/20 23:00 0.18 3.04 307 60.80 7.94 7.49 161 12.49
Data processed at Fri 21Nov2025 05:10 GMT

NOTICE: If you are parsing this page

Please convert to using our Data API. Starting January 1st, 2026 we will be migrating to: https://water.usace.army.mil with modern pages rendered in JavaScript. You will no longer be able to scrape this page! CWMSDataAPI (CDA)

Timeseries IDs (TSIDs)

TSIDs used from left to right in the data table
FAYE.Precip-Inc.Total.1Hour.1Hour.Ccp-Rev
FAYE.Stage.Inst.1Hour.0.Ccp-Rev
FAYE.Flow.Inst.1Hour.0.Ccp-Rev
FAYE.Temp-Water.Inst.1Hour.0.Ccp-Rev
FAYE.Conc-DO.Inst.1Hour.0.Ccp-Rev
FAYE.pH.Inst.1Hour.0.Ccp-Rev
FAYE.Cond-Water.Inst.1Hour.0.Ccp-Rev
FAYE.Volt-Battery Load.Inst.1Hour.0.Ccp-Rev

                            

All information presented herein is the property of the government of the United States of America and may be revised or deleted at any time without prior notice. Dissemination of this information without the expressed written consent of the Public Affairs Office, Tulsa District U.S. Army Corps of Engineers is strictly prohibited. These data are gathered electronically and, as presented, have NOT undergone any form of quality control. These data are NOT guaranteed to be valid or correct.